Steptoe Valley WMA, Nevada Weather observations

Data are for 10 minute period ending at time listed.
 Day   Time   Solar   Ave.   Ave.  Ave.  Vector  Max.   Baro.   Total    
  of    of     Rad.   Air    Rel.  Wind   Wind   Wind  Press.  Precip.   
Year   Day            Temp.  Hum.  Speed  Dir.   Gust                    
2016   (PST)  Kw/m2    F      %     mph   deg.    mph    mb.     in.     
-------------------------------------------------------------------------
 208    3:00   0.00   45.2    42    5.0   175     6.8   806.6    0.00 
 208    3:10   0.00   44.8    40    4.7   167     6.4   806.6    0.00 
 208    3:20   0.00   44.7    41    3.9   173     5.2   806.7    0.00 
 208    3:30   0.00   43.7    48    4.0   162     7.7   806.8    0.00 
 208    3:40   0.00   44.1    43    4.9   164     7.1   806.8    0.00 
 208    3:50   0.00   44.7    41    2.2   174     4.6   806.9    0.00 
 208    4:00   0.00   44.1    43    2.9   188     5.4   807.0    0.00 
 208    4:10   0.00   42.9    43    5.4   166     6.5   807.0    0.00 
 208    4:20   0.00   42.9    44    4.6   186     6.6   807.0    0.00 
 208    4:30   0.00   40.9    54    2.5   178     5.8   807.1    0.00 
 208    4:40   0.00   41.4    58    3.6   170     5.1   807.2    0.00 
 208    4:50   0.01   42.8    49    3.9   165     5.6   807.2    0.00 
 208    5:00   0.01   43.5    47    2.5   181     4.3   807.4    0.00 
 208    5:10   0.02   44.5    43    3.6   179     7.0   807.4    0.00 
 208    5:20   0.02   46.7    39    5.0   170     7.3   807.5    0.00 
 208    5:30   0.02   45.4    44    4.3   171     5.8   807.7    0.00 
 208    5:40   0.03   45.2    46    4.7   172     5.9   807.7    0.00 
 208    5:50   0.14   46.3    51    3.7   157     5.5   807.8    0.00 
 208    6:00   0.18   49.9    48    3.8   157     5.1   807.8    0.00 
 208    6:10   0.21   53.3    49    4.1   168     5.6   807.8    0.00 
 208    6:20   0.25   56.1    44    4.3   182     6.6   807.8    0.00 
 208    6:30   0.28   58.2    39    5.0   191     7.0   807.8    0.00 
 208    6:40   0.32   60.6    35    4.4   182     6.4   807.8    0.00 
 208    6:50   0.35   64.2    34    3.2   188     5.6   807.7    0.00 
 208    7:00   0.38   66.7    29    4.6   189     6.5   807.7    0.00 
 208    7:10   0.42   67.9    28    3.8   185     6.4   807.8    0.00 
 208    7:20   0.45   70.0    27    3.7   194     6.3   807.8    0.00 
 208    7:30   0.49   71.7    26    3.5   190     5.3   807.9    0.00 
 208    7:40   0.52   74.1    23    3.2   187     4.5   808.0    0.00 
 208    7:50   0.55   75.6    23    3.1   192     4.2   808.0    0.00 
 208    8:00   0.58   77.2    23    2.8   203     4.5   808.0    0.00 
 208    8:10   0.61   79.1    21    2.8   201     4.7   808.0    0.00 
 208    8:20   0.64   80.5    16    1.3   234     3.1   808.0    0.00 
 208    8:30   0.67   81.8    15    1.8   233     4.8   808.0    0.00 
 208    8:40   0.70   82.2    15    2.4   262     6.4   808.0    0.00 
 208    8:50   0.73   82.7    12    2.5   326     5.7   808.0    0.00 
 208    9:00   0.75   83.6    12    2.4   357     6.2   808.0    0.00 
 208    9:10   0.78   84.3    10    3.2     8     6.9   807.9    0.00 
 208    9:20   0.80   84.9    10    4.1   346     7.6   807.9    0.00 
 208    9:30   0.83   86.0    10    3.2    22     7.2   807.9    0.00 
 208    9:40   0.85   86.8     9    4.8     0     9.4   807.8    0.00 
 208    9:50   0.87   86.5     9    5.3   356     8.6   807.8    0.00 
 208   10:00   0.89   87.3     9    3.6    16     7.4   807.7    0.00 
 208   10:10   0.90   88.0     9    3.8    12     9.9   807.6    0.00 
 208   10:20   0.92   87.9     8    4.7   341     8.3   807.6    0.00 
 208   10:30   0.93   87.8     9    3.9    31     8.0   807.4    0.00 
 208   10:40   0.94   88.9     9    4.1   336    10.0   807.3    0.00 
 208   10:50   0.95   89.4    10    3.6   201     6.5   807.1    0.00 
 208   11:00   0.95   89.7    12    5.3   201     8.5   807.0    0.00 
 208   11:10   0.96   89.3    10    5.2   158    13.0   807.0    0.00 
 208   11:20   0.97   89.8    10    4.1   182    10.7   806.9    0.00 
 208   11:30   0.98   90.8    10    5.3   184    12.4   806.8    0.00 
 208   11:40   0.97   90.1    12    5.1   216    11.8   806.7    0.00 
 208   11:50   0.98   89.0    10    6.6   232    11.8   806.7    0.00 
 208   12:00   0.97   90.1     9    3.8   205     6.9   806.6    0.00 
 208   12:10   0.97   90.9     9    3.1   144     7.1   806.4    0.00 
 208   12:20   0.97   91.0     8    4.1   313     9.4   806.3    0.00 
 208   12:30   0.97   90.4    10    7.5   240    15.2   806.2    0.00 
 208   12:40   0.96   90.5     9    8.6   280    16.5   806.1    0.00 
 208   12:50   0.95   91.0     9    8.7   306    14.5   806.0    0.00 
 208   13:00   0.94   91.4     8    4.9   317    13.7   806.0    0.00 
 208   13:10   0.93   91.8     9    7.3   315    15.4   805.9    0.00 
 208   13:20   0.91   92.0     9    8.2   299    15.3   805.8    0.00 
 208   13:30   0.89   92.2     8    9.4   339    16.1   805.8    0.00 
 208   13:40   0.88   91.9     8    4.2   308     8.6   805.7    0.00 
 208   13:50   0.86   92.1     9    4.9   301    10.4   805.6    0.00 
 208   14:00   0.84   91.5     9    6.4   280    14.4   805.5    0.00 
 208   14:10   0.83   91.8     9   10.1   315    17.2   805.5    0.00 
 208   14:20   0.80   92.3     8    3.8   355     8.8   805.4    0.00 
 208   14:30   0.78   92.0    10    5.2   251    10.8   805.3    0.00 
 208   14:40   0.75   91.7     8    4.9   315    12.0   805.3    0.00 
 208   14:50   0.72   92.1     8    2.6   333     6.2   805.1    0.00 
 208   15:00   0.70   92.2    12    4.4   226     7.9   805.0    0.00 
 208   15:10   0.67   93.3    10    2.7   266     7.8   804.9    0.00 
 208   15:20   0.64   91.8    11    6.4   196    12.7   804.8    0.00 
 208   15:30   0.61   91.1    10    6.7   238    13.3   804.8    0.00 
 208   15:40   0.59   91.6     9    4.3   294     8.1   804.9    0.00 
 208   15:50   0.56   92.7     9    3.0   273     6.4   804.8    0.00 
 208   16:00   0.53   90.7    11    6.8   258    13.2   804.8    0.00 
 208   16:10   0.49   89.8    12    5.3   227    10.1   804.8    0.00 
 208   16:20   0.46   90.6    11    3.9   244     7.3   804.8    0.00 
 208   16:30   0.43   91.7    10    3.4   205     7.0   804.8    0.00 
 208   16:40   0.40   90.3    13    5.0   246    10.3   804.8    0.00 
 208   16:50   0.36   90.6    10    4.7   306     9.5   804.7    0.00 
 208   17:00   0.33   90.2    10    4.0   286     8.3   804.7    0.00 
 208   17:10   0.30   90.7    10    1.7   292     3.9   804.7    0.00 
 208   17:20   0.27   91.1    12    2.5   267     6.5   804.7    0.00 
 208   17:30   0.23   87.3    14    2.9   297     5.9   804.7    0.00 
 208   17:40   0.20   87.5    12    3.0   317     5.2   804.8    0.00 
 208   17:50   0.17   88.1    12    1.2   350     3.1   804.8    0.00 
 208   18:00   0.14   87.9    12    1.6   342     3.7   804.9    0.00 
 208   18:10   0.11   88.2    13    1.4   318     3.1   804.9    0.00 
 208   18:20   0.09   85.6    14    0.0     0     0.5   805.0    0.00 
 208   18:30   0.04   84.2    13    0.1   356     1.2   805.1    0.00 
 208   18:40   0.04   82.3    13    0.3   121     1.2   805.1    0.00 
 208   18:50   0.02   78.5    17    0.9   177     2.4   805.2    0.00 
 208   19:00   0.01   75.5    15    1.6   173     3.3   805.2    0.00 
 208   19:10   0.00   73.6    13    2.6   106     7.8   805.3    0.00 
 208   19:20   0.00   70.6    16    2.1   143     5.4   805.4    0.00 
 208   19:30   0.00   66.7    20    1.9   126     3.9   805.4    0.00 
 208   19:40   0.00   67.1    15    3.0   119     5.5   805.4    0.00 
 208   19:50   0.00   63.8    25    1.4   164     3.1   805.5    0.00 
 208   20:00   0.00   61.4    24    2.0   156     3.7   805.6    0.00 
 208   20:10   0.00   57.7    36    1.6   178     3.1   805.8    0.00 
 208   20:20   0.00   53.8    36    3.2   162     4.3   805.9    0.00 
 208   20:30   0.00   62.6    16    2.9   130     4.2   805.9    0.00 
 208   20:40   0.00   64.6    14    4.8   109     9.3   805.9    0.00 
 208   20:50   0.00   65.1    14    5.5   104    10.2   806.1    0.00 
 208   21:00   0.00   63.8    15    5.3    70     9.7   806.2    0.00 
 208   21:10   0.00   59.2    26    1.5   197     3.0   806.4    0.00 
 208   21:20   0.00   55.0    31    2.6   170     3.9   806.3    0.00 
 208   21:30   0.00   54.4    32    2.0   168     3.8   806.3    0.00 
 208   21:40   0.00   52.3    43    1.6   152     2.3   806.3    0.00 
 208   21:50   0.00   50.1    44    2.9   171     4.7   806.3    0.00 
 208   22:00   0.00   49.6    40    2.8   173     3.7   806.4    0.00 
 208   22:10   0.00   50.0    39    1.1   171     2.5   806.6    0.00 
 208   22:20   0.00   49.7    36    1.0   178     2.2   806.6    0.00 
 208   22:30   0.00   50.8    31    1.3   130     2.7   806.7    0.00 
 208   22:40   0.00   51.5    34    1.6   163     3.9   806.8    0.00 
 208   22:50   0.00   53.6    27    3.3   155     7.2   806.8    0.00 
 208   23:00   0.00   49.9    36    2.2   182     3.9   806.9    0.00 
 208   23:10   0.00   49.2    33    2.5   152     3.6   807.0    0.00 
 208   23:20   0.00   49.6    33    2.9   157     3.9   806.9    0.00 
 208   23:30   0.00   49.7    32    3.5   162     5.2   806.9    0.00 
 208   23:40   0.00   52.6    26    3.2   176     6.6   806.9    0.00 
 208   23:50   0.00   49.4    33    1.8   172     2.9   806.9    0.00 
 209    0:00   0.00   46.4    39    3.0   174     3.9   806.9    0.00 
 209    0:10   0.00   45.9    39    2.7   178     3.9   806.9    0.00 
 209    0:20   0.00   46.1    33    3.1   164     4.7   806.9    0.00 
 209    0:30   0.00   47.4    31    1.7   175     3.1   806.9    0.00 
 209    0:40   0.00   47.0    31    1.7   150     3.0   806.9    0.00 
 209    0:50   0.00   46.9    44    1.5   192     3.1   807.0    0.00 
 209    1:00   0.00   44.6    41    3.6   169     4.8   807.0    0.00 
 209    1:10   0.00   45.8    36    2.7   170     4.2   807.1    0.00 
 209    1:20   0.00   49.1    28    4.3   174     6.3   807.0    0.00 
 209    1:30   0.00   48.1    33    2.7   177     4.7   807.0    0.00 
 209    1:40   0.00   46.8    34    0.4   180     1.9   807.0    0.00 
 209    1:50   0.00   45.2    37    0.9   151     2.6   807.1    0.00 
 209    2:00   0.00   43.6    40    1.8   181     3.9   807.2    0.00 
 209    2:10   0.00   42.3    41    3.4   181     5.6   807.2    0.00 
 209    2:20   0.00   42.2    40    0.9   165     2.5   807.3    0.00 
 209    2:30   0.00   43.2    37    0.8   328     2.8   807.3    0.00 
 209    2:40   0.00   42.5    41    1.7   168     3.7   807.4    0.00 
 209    2:50   0.00   41.6    49    4.4   182     7.5   807.5    0.00 

Return to Steptoe Valley WMA graphs page.


Western Regional Climate Center,wrcc@dri.edu